sensor_id;sensor_type;location;lat;lon;timestamp;pressure;altitude;pressure_sealevel;temperature;humidity
43683;BME280;29285;52.128;21.060;2024-01-16T00:02:22;98203.66;;;-1.49;100.00
43683;BME280;29285;52.128;21.060;2024-01-16T00:07:23;98214.57;;;-1.54;100.00
43683;BME280;29285;52.128;21.060;2024-01-16T00:12:24;98222.55;;;-1.55;100.00
43683;BME280;29285;52.128;21.060;2024-01-16T00:17:25;98235.49;;;-1.64;100.00
43683;BME280;29285;52.128;21.060;2024-01-16T00:22:27;98251.30;;;-1.65;100.00
43683;BME280;29285;52.128;21.060;2024-01-16T00:27:29;98259.46;;;-1.66;100.00
43683;BME280;29285;52.128;21.060;2024-01-16T00:32:30;98268.31;;;-1.61;100.00
43683;BME280;29285;52.128;21.060;2024-01-16T00:37:31;98290.23;;;-1.63;100.00
43683;BME280;29285;52.128;21.060;2024-01-16T00:42:33;98292.80;;;-1.65;100.00
43683;BME280;29285;52.128;21.060;2024-01-16T00:47:34;98309.30;;;-1.65;100.00
43683;BME280;29285;52.128;21.060;2024-01-16T00:52:35;98317.98;;;-1.65;100.00
43683;BME280;29285;52.128;21.060;2024-01-16T00:57:37;98322.72;;;-1.67;100.00
43683;BME280;29285;52.128;21.060;2024-01-16T01:02:37;98324.26;;;-1.70;100.00
43683;BME280;29285;52.128;21.060;2024-01-16T01:07:39;98331.39;;;-1.74;100.00
43683;BME280;29285;52.128;21.060;2024-01-16T01:12:40;98332.06;;;-1.74;100.00
43683;BME280;29285;52.128;21.060;2024-01-16T01:17:41;98341.08;;;-1.75;100.00
43683;BME280;29285;52.128;21.060;2024-01-16T01:22:43;98339.37;;;-1.75;100.00
43683;BME280;29285;52.128;21.060;2024-01-16T01:27:45;98344.14;;;-1.74;100.00
43683;BME280;29285;52.128;21.060;2024-01-16T01:32:46;98355.38;;;-1.70;100.00
43683;BME280;29285;52.128;21.060;2024-01-16T01:37:47;98364.04;;;-1.71;100.00
43683;BME280;29285;52.128;21.060;2024-01-16T01:42:49;98365.74;;;-1.71;100.00
43683;BME280;29285;52.128;21.060;2024-01-16T01:47:50;98381.91;;;-1.70;100.00
43683;BME280;29285;52.128;21.060;2024-01-16T01:52:51;98391.77;;;-1.70;100.00
43683;BME280;29285;52.128;21.060;2024-01-16T01:57:52;98399.06;;;-1.69;100.00
43683;BME280;29285;52.128;21.060;2024-01-16T02:02:53;98421.34;;;-1.71;100.00
43683;BME280;29285;52.128;21.060;2024-01-16T02:07:55;98427.63;;;-1.75;100.00
43683;BME280;29285;52.128;21.060;2024-01-16T02:12:56;98434.94;;;-1.78;100.00
43683;BME280;29285;52.128;21.060;2024-01-16T02:17:57;98441.54;;;-1.82;100.00
43683;BME280;29285;52.128;21.060;2024-01-16T02:23:00;98453.77;;;-1.85;100.00
43683;BME280;29285;52.128;21.060;2024-01-16T02:28:04;98458.69;;;-1.89;100.00
43683;BME280;29285;52.128;21.060;2024-01-16T02:33:05;98467.52;;;-1.94;100.00
43683;BME280;29285;52.128;21.060;2024-01-16T02:38:06;98476.00;;;-1.96;100.00
43683;BME280;29285;52.128;21.060;2024-01-16T02:43:07;98479.04;;;-2.02;100.00
43683;BME280;29285;52.128;21.060;2024-01-16T02:48:08;98492.93;;;-2.07;100.00
43683;BME280;29285;52.128;21.060;2024-01-16T02:53:10;98503.27;;;-2.14;100.00
43683;BME280;29285;52.128;21.060;2024-01-16T02:58:11;98509.01;;;-2.19;100.00
43683;BME280;29285;52.128;21.060;2024-01-16T03:03:12;98521.73;;;-2.23;100.00
43683;BME280;29285;52.128;21.060;2024-01-16T03:08:15;98536.83;;;-2.28;100.00
43683;BME280;29285;52.128;21.060;2024-01-16T03:13:16;98541.56;;;-2.30;100.00
43683;BME280;29285;52.128;21.060;2024-01-16T03:18:17;98546.27;;;-2.35;100.00
43683;BME280;29285;52.128;21.060;2024-01-16T03:23:18;98549.28;;;-2.44;100.00
43683;BME280;29285;52.128;21.060;2024-01-16T03:28:19;98555.84;;;-2.49;100.00
43683;BME280;29285;52.128;21.060;2024-01-16T03:33:21;98557.70;;;-2.50;100.00
43683;BME280;29285;52.128;21.060;2024-01-16T03:38:22;98562.63;;;-2.51;100.00
43683;BME280;29285;52.128;21.060;2024-01-16T03:43:23;98568.56;;;-2.53;100.00
43683;BME280;29285;52.128;21.060;2024-01-16T03:48:24;98578.89;;;-2.57;100.00
43683;BME280;29285;52.128;21.060;2024-01-16T03:53:25;98593.14;;;-2.57;100.00
43683;BME280;29285;52.128;21.060;2024-01-16T03:58:26;98598.88;;;-2.62;100.00
43683;BME280;29285;52.128;21.060;2024-01-16T04:03:28;98605.48;;;-2.64;100.00
43683;BME280;29285;52.128;21.060;2024-01-16T04:08:34;98617.88;;;-2.64;100.00
43683;BME280;29285;52.128;21.060;2024-01-16T04:13:36;98631.98;;;-2.62;100.00
43683;BME280;29285;52.128;21.060;2024-01-16T04:18:39;98649.14;;;-2.62;100.00
43683;BME280;29285;52.128;21.060;2024-01-16T04:23:41;98663.58;;;-2.62;100.00
43683;BME280;29285;52.128;21.060;2024-01-16T04:28:43;98673.08;;;-2.61;100.00
43683;BME280;29285;52.128;21.060;2024-01-16T04:33:44;98677.05;;;-2.56;100.00
43683;BME280;29285;52.128;21.060;2024-01-16T04:38:45;98688.64;;;-2.53;100.00
43683;BME280;29285;52.128;21.060;2024-01-16T04:43:46;98689.86;;;-2.49;100.00
43683;BME280;29285;52.128;21.060;2024-01-16T04:48:48;98698.79;;;-2.40;100.00
43683;BME280;29285;52.128;21.060;2024-01-16T04:53:50;98700.95;;;-2.27;100.00
43683;BME280;29285;52.128;21.060;2024-01-16T04:58:51;98705.40;;;-2.23;100.00
43683;BME280;29285;52.128;21.060;2024-01-16T05:03:53;98722.23;;;-2.24;100.00
43683;BME280;29285;52.128;21.060;2024-01-16T05:08:55;98730.02;;;-2.07;100.00
43683;BME280;29285;52.128;21.060;2024-01-16T05:13:57;98739.08;;;-2.04;100.00
43683;BME280;29285;52.128;21.060;2024-01-16T05:18:59;98753.45;;;-2.11;100.00
43683;BME280;29285;52.128;21.060;2024-01-16T05:24:00;98760.25;;;-2.27;100.00
43683;BME280;29285;52.128;21.060;2024-01-16T05:29:01;98761.15;;;-2.39;100.00
43683;BME280;29285;52.128;21.060;2024-01-16T05:34:02;98770.74;;;-2.46;100.00
43683;BME280;29285;52.128;21.060;2024-01-16T05:39:03;98792.36;;;-2.57;100.00
43683;BME280;29285;52.128;21.060;2024-01-16T05:44:05;98795.45;;;-2.67;100.00
43683;BME280;29285;52.128;21.060;2024-01-16T05:49:06;98808.30;;;-2.73;100.00
43683;BME280;29285;52.128;21.060;2024-01-16T05:54:07;98814.55;;;-2.73;100.00
43683;BME280;29285;52.128;21.060;2024-01-16T05:59:08;98821.65;;;-2.77;100.00
43683;BME280;29285;52.128;21.060;2024-01-16T06:04:09;98827.29;;;-2.87;100.00
43683;BME280;29285;52.128;21.060;2024-01-16T06:09:10;98830.56;;;-2.95;100.00
43683;BME280;29285;52.128;21.060;2024-01-16T06:14:14;98831.27;;;-3.05;100.00
43683;BME280;29285;52.128;21.060;2024-01-16T06:19:22;98839.98;;;-3.13;100.00
43683;BME280;29285;52.128;21.060;2024-01-16T06:24:23;98854.83;;;-3.18;100.00
43683;BME280;29285;52.128;21.060;2024-01-16T06:29:24;98865.81;;;-3.21;100.00
43683;BME280;29285;52.128;21.060;2024-01-16T06:34:25;98870.02;;;-3.23;100.00
43683;BME280;29285;52.128;21.060;2024-01-16T06:39:27;98882.81;;;-3.19;100.00
43683;BME280;29285;52.128;21.060;2024-01-16T06:44:28;98893.52;;;-3.17;100.00
43683;BME280;29285;52.128;21.060;2024-01-16T06:49:29;98899.48;;;-3.16;100.00
43683;BME280;29285;52.128;21.060;2024-01-16T06:54:30;98903.27;;;-3.12;100.00
43683;BME280;29285;52.128;21.060;2024-01-16T06:59:31;98916.17;;;-3.12;100.00
43683;BME280;29285;52.128;21.060;2024-01-16T07:04:32;98922.51;;;-3.20;100.00
43683;BME280;29285;52.128;21.060;2024-01-16T07:09:33;98928.85;;;-3.25;100.00
43683;BME280;29285;52.128;21.060;2024-01-16T07:14:34;98934.77;;;-3.27;100.00
43683;BME280;29285;52.128;21.060;2024-01-16T07:19:35;98953.76;;;-3.27;100.00
43683;BME280;29285;52.128;21.060;2024-01-16T07:24:36;98969.34;;;-3.28;100.00
43683;BME280;29285;52.128;21.060;2024-01-16T07:29:38;98968.36;;;-3.26;100.00
43683;BME280;29285;52.128;21.060;2024-01-16T07:34:39;98976.34;;;-3.27;100.00
43683;BME280;29285;52.128;21.060;2024-01-16T07:39:41;98983.77;;;-3.37;100.00
43683;BME280;29285;52.128;21.060;2024-01-16T07:44:42;98991.82;;;-3.42;100.00
43683;BME280;29285;52.128;21.060;2024-01-16T07:49:43;99004.86;;;-3.43;100.00
43683;BME280;29285;52.128;21.060;2024-01-16T07:54:44;99010.06;;;-3.37;100.00
43683;BME280;29285;52.128;21.060;2024-01-16T07:59:45;99019.97;;;-3.34;100.00
43683;BME280;29285;52.128;21.060;2024-01-16T08:04:46;99030.66;;;-3.34;100.00
43683;BME280;29285;52.128;21.060;2024-01-16T08:09:48;99033.20;;;-3.34;100.00
43683;BME280;29285;52.128;21.060;2024-01-16T08:14:49;99043.21;;;-3.24;100.00
43683;BME280;29285;52.128;21.060;2024-01-16T08:19:50;99052.98;;;-3.19;100.00
43683;BME280;29285;52.128;21.060;2024-01-16T08:24:51;99064.20;;;-3.19;100.00
43683;BME280;29285;52.128;21.060;2024-01-16T08:29:53;99071.36;;;-3.16;100.00
43683;BME280;29285;52.128;21.060;2024-01-16T08:34:54;99072.25;;;-3.23;100.00
43683;BME280;29285;52.128;21.060;2024-01-16T08:39:55;99089.25;;;-3.30;100.00
43683;BME280;29285;52.128;21.060;2024-01-16T08:44:56;99098.02;;;-3.33;100.00
43683;BME280;29285;52.128;21.060;2024-01-16T08:49:57;99104.27;;;-3.34;100.00
43683;BME280;29285;52.128;21.060;2024-01-16T08:54:58;99112.08;;;-3.34;100.00
43683;BME280;29285;52.128;21.060;2024-01-16T09:00:00;99116.69;;;-3.33;100.00
43683;BME280;29285;52.128;21.060;2024-01-16T09:05:01;99124.28;;;-3.34;100.00
43683;BME280;29285;52.128;21.060;2024-01-16T09:10:03;99127.38;;;-3.33;100.00
43683;BME280;29285;52.128;21.060;2024-01-16T09:15:04;99133.83;;;-3.24;100.00
43683;BME280;29285;52.128;21.060;2024-01-16T09:20:06;99137.29;;;-3.12;100.00
43683;BME280;29285;52.128;21.060;2024-01-16T09:25:08;99144.77;;;-3.11;100.00
43683;BME280;29285;52.128;21.060;2024-01-16T09:30:09;99148.77;;;-3.08;100.00
43683;BME280;29285;52.128;21.060;2024-01-16T09:35:10;99156.10;;;-3.13;100.00
43683;BME280;29285;52.128;21.060;2024-01-16T09:40:12;99155.47;;;-3.19;100.00
43683;BME280;29285;52.128;21.060;2024-01-16T09:45:19;99160.87;;;-3.12;100.00
43683;BME280;29285;52.128;21.060;2024-01-16T09:50:22;99162.82;;;-3.09;100.00
43683;BME280;29285;52.128;21.060;2024-01-16T09:55:23;99176.78;;;-3.06;100.00
43683;BME280;29285;52.128;21.060;2024-01-16T10:00:24;99179.59;;;-3.10;100.00
43683;BME280;29285;52.128;21.060;2024-01-16T10:05:26;99186.65;;;-3.04;100.00
43683;BME280;29285;52.128;21.060;2024-01-16T10:10:27;99198.69;;;-2.97;100.00
43683;BME280;29285;52.128;21.060;2024-01-16T10:15:29;99200.09;;;-2.94;100.00
43683;BME280;29285;52.128;21.060;2024-01-16T10:20:34;99204.94;;;-2.90;100.00
43683;BME280;29285;52.128;21.060;2024-01-16T10:25:37;99209.14;;;-2.76;100.00
43683;BME280;29285;52.128;21.060;2024-01-16T10:30:38;99225.90;;;-2.69;100.00
43683;BME280;29285;52.128;21.060;2024-01-16T10:35:39;99223.27;;;-2.73;100.00
43683;BME280;29285;52.128;21.060;2024-01-16T10:40:40;99230.64;;;-2.70;100.00
43683;BME280;29285;52.128;21.060;2024-01-16T10:45:42;99234.82;;;-2.65;100.00
43683;BME280;29285;52.128;21.060;2024-01-16T10:50:43;99242.56;;;-2.50;100.00
43683;BME280;29285;52.128;21.060;2024-01-16T10:55:51;99245.46;;;-2.41;100.00
43683;BME280;29285;52.128;21.060;2024-01-16T11:00:53;99247.34;;;-2.22;100.00
43683;BME280;29285;52.128;21.060;2024-01-16T11:05:57;99249.48;;;-2.26;100.00
43683;BME280;29285;52.128;21.060;2024-01-16T11:10:59;99256.17;;;-2.22;100.00
43683;BME280;29285;52.128;21.060;2024-01-16T11:16:05;99255.34;;;-2.03;100.00
43683;BME280;29285;52.128;21.060;2024-01-16T11:21:13;99261.92;;;-1.41;100.00
43683;BME280;29285;52.128;21.060;2024-01-16T11:26:32;99258.52;;;-0.05;100.00
43683;BME280;29285;52.128;21.060;2024-01-16T11:31:35;99254.25;;;0.76;100.00
43683;BME280;29285;52.128;21.060;2024-01-16T11:41:56;99264.67;;;-0.05;100.00
43683;BME280;29285;52.128;21.060;2024-01-16T11:47:00;99268.84;;;-0.14;100.00
43683;BME280;29285;52.128;21.060;2024-01-16T11:52:07;99261.41;;;1.02;100.00
43683;BME280;29285;52.128;21.060;2024-01-16T11:57:41;99270.27;;;1.01;100.00
43683;BME280;29285;52.128;21.060;2024-01-16T12:02:52;99282.88;;;0.93;100.00
43683;BME280;29285;52.128;21.060;2024-01-16T12:07:54;99285.80;;;1.25;100.00
43683;BME280;29285;52.128;21.060;2024-01-16T12:13:00;99279.13;;;1.67;100.00
43683;BME280;29285;52.128;21.060;2024-01-16T12:18:01;99284.96;;;1.71;100.00
43683;BME280;29285;52.128;21.060;2024-01-16T12:23:06;99281.66;;;1.57;100.00
43683;BME280;29285;52.128;21.060;2024-01-16T12:28:07;99289.73;;;3.15;100.00
43683;BME280;29285;52.128;21.060;2024-01-16T12:33:13;99277.92;;;4.92;100.00
43683;BME280;29285;52.128;21.060;2024-01-16T12:38:15;99286.81;;;4.60;100.00
43683;BME280;29285;52.128;21.060;2024-01-16T12:43:17;99290.64;;;5.12;100.00
43683;BME280;29285;52.128;21.060;2024-01-16T12:48:25;99302.55;;;5.81;100.00
43683;BME280;29285;52.128;21.060;2024-01-16T12:53:27;99308.10;;;6.73;100.00
43683;BME280;29285;52.128;21.060;2024-01-16T12:58:35;99311.23;;;8.31;100.00
43683;BME280;29285;52.128;21.060;2024-01-16T13:03:37;99310.11;;;8.51;100.00
43683;BME280;29285;52.128;21.060;2024-01-16T13:08:38;99318.67;;;8.09;100.00
43683;BME280;29285;52.128;21.060;2024-01-16T13:13:39;99314.63;;;9.71;100.00
43683;BME280;29285;52.128;21.060;2024-01-16T13:18:41;99321.11;;;8.20;100.00
43683;BME280;29285;52.128;21.060;2024-01-16T13:23:43;99323.66;;;6.24;100.00
43683;BME280;29285;52.128;21.060;2024-01-16T13:28:46;99329.59;;;4.32;100.00
43683;BME280;29285;52.128;21.060;2024-01-16T13:33:49;99337.88;;;3.56;100.00
43683;BME280;29285;52.128;21.060;2024-01-16T13:38:50;99346.91;;;2.87;100.00
43683;BME280;29285;52.128;21.060;2024-01-16T13:43:51;99357.02;;;1.90;100.00
43683;BME280;29285;52.128;21.060;2024-01-16T13:48:52;99364.21;;;1.23;100.00
43683;BME280;29285;52.128;21.060;2024-01-16T13:53:54;99373.41;;;0.75;100.00
43683;BME280;29285;52.128;21.060;2024-01-16T13:58:55;99381.30;;;0.08;100.00
43683;BME280;29285;52.128;21.060;2024-01-16T14:03:57;99395.03;;;-0.41;100.00
43683;BME280;29285;52.128;21.060;2024-01-16T14:08:58;99412.94;;;-0.76;100.00
43683;BME280;29285;52.128;21.060;2024-01-16T14:13:59;99413.02;;;-1.03;100.00
43683;BME280;29285;52.128;21.060;2024-01-16T14:19:01;99416.36;;;-1.17;100.00
43683;BME280;29285;52.128;21.060;2024-01-16T14:24:03;99423.98;;;-1.40;100.00
43683;BME280;29285;52.128;21.060;2024-01-16T14:29:04;99431.88;;;-1.64;100.00
43683;BME280;29285;52.128;21.060;2024-01-16T14:34:07;99437.87;;;-1.79;100.00
43683;BME280;29285;52.128;21.060;2024-01-16T14:39:08;99450.34;;;-1.93;100.00
43683;BME280;29285;52.128;21.060;2024-01-16T14:44:14;99460.52;;;-2.11;100.00
43683;BME280;29285;52.128;21.060;2024-01-16T14:49:15;99466.22;;;-2.23;100.00
43683;BME280;29285;52.128;21.060;2024-01-16T14:54:17;99469.73;;;-2.18;100.00
43683;BME280;29285;52.128;21.060;2024-01-16T14:59:19;99478.11;;;-2.38;100.00
43683;BME280;29285;52.128;21.060;2024-01-16T15:04:20;99479.92;;;-2.48;100.00
43683;BME280;29285;52.128;21.060;2024-01-16T15:09:21;99488.56;;;-2.57;100.00
43683;BME280;29285;52.128;21.060;2024-01-16T15:14:23;99497.92;;;-2.64;100.00
43683;BME280;29285;52.128;21.060;2024-01-16T15:19:24;99497.95;;;-2.69;100.00
43683;BME280;29285;52.128;21.060;2024-01-16T15:24:25;99504.95;;;-2.74;100.00
43683;BME280;29285;52.128;21.060;2024-01-16T15:29:29;99513.36;;;-2.78;100.00
43683;BME280;29285;52.128;21.060;2024-01-16T15:34:30;99524.23;;;-2.64;100.00
43683;BME280;29285;52.128;21.060;2024-01-16T15:39:31;99527.10;;;-2.50;100.00
43683;BME280;29285;52.128;21.060;2024-01-16T15:44:40;99522.25;;;-2.47;100.00
43683;BME280;29285;52.128;21.060;2024-01-16T15:49:41;99526.20;;;-2.45;100.00
43683;BME280;29285;52.128;21.060;2024-01-16T15:54:42;99531.18;;;-2.58;100.00
43683;BME280;29285;52.128;21.060;2024-01-16T15:59:45;99539.03;;;-2.70;100.00
43683;BME280;29285;52.128;21.060;2024-01-16T16:04:46;99538.98;;;-2.78;100.00
43683;BME280;29285;52.128;21.060;2024-01-16T16:09:47;99547.11;;;-2.86;100.00
43683;BME280;29285;52.128;21.060;2024-01-16T16:14:51;99552.39;;;-2.92;100.00
43683;BME280;29285;52.128;21.060;2024-01-16T16:19:53;99565.52;;;-3.10;100.00
43683;BME280;29285;52.128;21.060;2024-01-16T16:24:55;99574.55;;;-3.33;100.00
43683;BME280;29285;52.128;21.060;2024-01-16T16:29:58;99579.98;;;-3.52;100.00
43683;BME280;29285;52.128;21.060;2024-01-16T16:34:59;99587.41;;;-3.70;100.00
43683;BME280;29285;52.128;21.060;2024-01-16T16:40:00;99590.13;;;-3.81;100.00
43683;BME280;29285;52.128;21.060;2024-01-16T16:45:02;99594.32;;;-4.00;100.00
43683;BME280;29285;52.128;21.060;2024-01-16T16:50:04;99588.92;;;-4.20;100.00
43683;BME280;29285;52.128;21.060;2024-01-16T16:55:07;99592.88;;;-4.30;100.00
43683;BME280;29285;52.128;21.060;2024-01-16T17:00:08;99587.49;;;-4.29;100.00
43683;BME280;29285;52.128;21.060;2024-01-16T17:05:10;99596.67;;;-4.22;100.00
43683;BME280;29285;52.128;21.060;2024-01-16T17:10:11;99597.23;;;-4.20;100.00
43683;BME280;29285;52.128;21.060;2024-01-16T17:15:12;99594.34;;;-4.10;100.00
43683;BME280;29285;52.128;21.060;2024-01-16T17:20:14;99596.56;;;-3.93;100.00
43683;BME280;29285;52.128;21.060;2024-01-16T17:25:15;99596.40;;;-3.81;100.00
43683;BME280;29285;52.128;21.060;2024-01-16T17:30:16;99596.36;;;-3.66;100.00
43683;BME280;29285;52.128;21.060;2024-01-16T17:35:17;99604.56;;;-3.57;100.00
43683;BME280;29285;52.128;21.060;2024-01-16T17:40:20;99616.84;;;-3.55;100.00
43683;BME280;29285;52.128;21.060;2024-01-16T17:45:21;99622.86;;;-3.58;100.00
43683;BME280;29285;52.128;21.060;2024-01-16T17:50:22;99629.77;;;-3.71;100.00
43683;BME280;29285;52.128;21.060;2024-01-16T17:55:25;99634.38;;;-3.92;100.00
43683;BME280;29285;52.128;21.060;2024-01-16T18:00:30;99638.65;;;-3.86;100.00
43683;BME280;29285;52.128;21.060;2024-01-16T18:05:32;99645.70;;;-3.88;100.00
43683;BME280;29285;52.128;21.060;2024-01-16T18:10:33;99647.14;;;-3.91;100.00
43683;BME280;29285;52.128;21.060;2024-01-16T18:15:34;99653.20;;;-3.98;100.00
43683;BME280;29285;52.128;21.060;2024-01-16T18:20:36;99657.58;;;-4.04;100.00
43683;BME280;29285;52.128;21.060;2024-01-16T18:25:37;99655.80;;;-4.01;100.00
43683;BME280;29285;52.128;21.060;2024-01-16T18:30:38;99656.85;;;-3.95;100.00
43683;BME280;29285;52.128;21.060;2024-01-16T18:35:40;99664.61;;;-3.90;100.00
43683;BME280;29285;52.128;21.060;2024-01-16T18:40:44;99670.70;;;-3.96;100.00
43683;BME280;29285;52.128;21.060;2024-01-16T18:45:46;99678.80;;;-3.92;100.00
43683;BME280;29285;52.128;21.060;2024-01-16T18:50:47;99676.06;;;-3.98;100.00
43683;BME280;29285;52.128;21.060;2024-01-16T18:55:51;99677.17;;;-3.95;100.00
43683;BME280;29285;52.128;21.060;2024-01-16T19:00:53;99680.30;;;-3.88;100.00
43683;BME280;29285;52.128;21.060;2024-01-16T19:05:57;99690.56;;;-3.90;100.00
43683;BME280;29285;52.128;21.060;2024-01-16T19:10:58;99702.07;;;-4.01;100.00
43683;BME280;29285;52.128;21.060;2024-01-16T19:15:59;99707.04;;;-4.05;100.00
43683;BME280;29285;52.128;21.060;2024-01-16T19:21:06;99721.05;;;-4.21;100.00
43683;BME280;29285;52.128;21.060;2024-01-16T19:26:07;99722.89;;;-4.42;100.00
43683;BME280;29285;52.128;21.060;2024-01-16T19:31:09;99735.61;;;-4.42;100.00
43683;BME280;29285;52.128;21.060;2024-01-16T19:36:11;99740.88;;;-4.51;100.00
43683;BME280;29285;52.128;21.060;2024-01-16T19:41:13;99733.55;;;-4.47;100.00
43683;BME280;29285;52.128;21.060;2024-01-16T19:46:14;99732.42;;;-4.36;100.00
43683;BME280;29285;52.128;21.060;2024-01-16T19:51:16;99732.02;;;-4.28;100.00
43683;BME280;29285;52.128;21.060;2024-01-16T19:56:17;99735.77;;;-4.22;100.00
43683;BME280;29285;52.128;21.060;2024-01-16T20:01:18;99740.77;;;-4.20;100.00
43683;BME280;29285;52.128;21.060;2024-01-16T20:06:20;99740.61;;;-4.14;100.00
43683;BME280;29285;52.128;21.060;2024-01-16T20:11:29;99747.36;;;-4.10;100.00
43683;BME280;29285;52.128;21.060;2024-01-16T20:16:31;99763.98;;;-4.09;100.00
43683;BME280;29285;52.128;21.060;2024-01-16T20:21:34;99765.41;;;-4.03;100.00
43683;BME280;29285;52.128;21.060;2024-01-16T20:26:35;99770.84;;;-4.02;100.00
43683;BME280;29285;52.128;21.060;2024-01-16T20:31:37;99770.10;;;-4.04;100.00
43683;BME280;29285;52.128;21.060;2024-01-16T20:36:39;99778.33;;;-4.06;100.00
43683;BME280;29285;52.128;21.060;2024-01-16T20:41:41;99788.06;;;-4.04;100.00
43683;BME280;29285;52.128;21.060;2024-01-16T20:46:44;99788.73;;;-4.04;100.00
43683;BME280;29285;52.128;21.060;2024-01-16T20:51:46;99772.80;;;-4.29;100.00
43683;BME280;29285;52.128;21.060;2024-01-16T20:56:47;99768.02;;;-4.25;100.00
43683;BME280;29285;52.128;21.060;2024-01-16T21:01:50;99766.67;;;-4.20;100.00
43683;BME280;29285;52.128;21.060;2024-01-16T21:06:52;99765.15;;;-4.05;100.00
43683;BME280;29285;52.128;21.060;2024-01-16T21:12:02;99755.73;;;-3.97;100.00
43683;BME280;29285;52.128;21.060;2024-01-16T21:17:04;99751.17;;;-3.97;100.00
43683;BME280;29285;52.128;21.060;2024-01-16T21:22:08;99758.14;;;-4.01;100.00
43683;BME280;29285;52.128;21.060;2024-01-16T21:27:09;99763.70;;;-4.08;100.00
43683;BME280;29285;52.128;21.060;2024-01-16T21:32:11;99762.06;;;-4.06;100.00
43683;BME280;29285;52.128;21.060;2024-01-16T21:37:13;99770.56;;;-4.15;100.00
43683;BME280;29285;52.128;21.060;2024-01-16T21:42:15;99787.13;;;-4.64;100.00
43683;BME280;29285;52.128;21.060;2024-01-16T21:47:17;99788.52;;;-5.00;100.00
43683;BME280;29285;52.128;21.060;2024-01-16T21:52:21;99795.09;;;-4.78;100.00
43683;BME280;29285;52.128;21.060;2024-01-16T21:57:22;99792.74;;;-4.54;100.00
43683;BME280;29285;52.128;21.060;2024-01-16T22:02:24;99791.04;;;-4.40;100.00
43683;BME280;29285;52.128;21.060;2024-01-16T22:07:25;99783.24;;;-4.31;100.00
43683;BME280;29285;52.128;21.060;2024-01-16T22:12:26;99779.48;;;-4.26;100.00
43683;BME280;29285;52.128;21.060;2024-01-16T22:17:27;99773.56;;;-4.27;100.00
43683;BME280;29285;52.128;21.060;2024-01-16T22:22:29;99766.25;;;-4.27;100.00
43683;BME280;29285;52.128;21.060;2024-01-16T22:27:30;99761.60;;;-4.25;100.00
43683;BME280;29285;52.128;21.060;2024-01-16T22:32:32;99756.23;;;-4.18;100.00
43683;BME280;29285;52.128;21.060;2024-01-16T22:37:33;99744.70;;;-4.14;100.00
43683;BME280;29285;52.128;21.060;2024-01-16T22:42:34;99744.29;;;-4.06;100.00
43683;BME280;29285;52.128;21.060;2024-01-16T22:47:36;99739.95;;;-3.98;100.00
43683;BME280;29285;52.128;21.060;2024-01-16T22:52:38;99734.44;;;-3.96;100.00
43683;BME280;29285;52.128;21.060;2024-01-16T22:57:39;99745.75;;;-3.97;100.00
43683;BME280;29285;52.128;21.060;2024-01-16T23:02:40;99748.55;;;-3.95;100.00
43683;BME280;29285;52.128;21.060;2024-01-16T23:07:42;99742.76;;;-3.90;100.00
43683;BME280;29285;52.128;21.060;2024-01-16T23:12:45;99735.90;;;-3.82;100.00
43683;BME280;29285;52.128;21.060;2024-01-16T23:17:46;99733.84;;;-3.78;100.00
43683;BME280;29285;52.128;21.060;2024-01-16T23:22:47;99733.32;;;-3.73;100.00
43683;BME280;29285;52.128;21.060;2024-01-16T23:27:48;99730.16;;;-3.71;100.00
43683;BME280;29285;52.128;21.060;2024-01-16T23:32:50;99723.60;;;-3.69;100.00
43683;BME280;29285;52.128;21.060;2024-01-16T23:37:51;99719.05;;;-3.68;100.00
43683;BME280;29285;52.128;21.060;2024-01-16T23:42:54;99708.62;;;-3.70;100.00
43683;BME280;29285;52.128;21.060;2024-01-16T23:47:56;99707.17;;;-3.68;100.00
43683;BME280;29285;52.128;21.060;2024-01-16T23:52:58;99702.52;;;-3.71;100.00
43683;BME280;29285;52.128;21.060;2024-01-16T23:58:00;99698.45;;;-3.70;100.00
